Time;durP1;ratioP1;P1;durP2;ratioP2;P2;SDS_P1;SDS_P2;PMS_P1;PMS_P2;Temp;Humidity;BMP_temperature;BMP_pressure;BME280_temperature;BME280_humidity;BME280_pressure;Samples;Min_cycle;Max_cycle;Signal;HPM_P1;HPM_P2
2022/05/09 00:00:06;;;;;;;4.82;2.67;;;7.40;99.90;;;;;;5118581;27;20567;-89
2022/05/09 00:02:37;;;;;;;3.83;1.92;;;7.20;99.90;;;;;;5135300;27;20496;-90
2022/05/09 00:05:07;;;;;;;4.40;2.40;;;7.40;99.90;;;;;;5119409;27;20050;-89
2022/05/09 00:07:33;;;;;;;3.65;2.60;;;7.10;99.90;;;;;;5129215;27;20054;-90
2022/05/09 00:10:00;;;;;;;7.37;2.60;;;6.90;99.90;;;;;;5139413;27;20133;-90
2022/05/09 00:12:30;;;;;;;8.93;2.72;;;7.70;99.90;;;;;;5115883;27;20069;-90
2022/05/09 00:15:08;;;;;;;;;;;;;;;;;;;;;
2022/05/09 00:17:35;;;;;;;3.20;1.88;;;6.70;99.90;;;;;;5138156;27;20049;-90
2022/05/09 00:20:04;;;;;;;6.43;2.70;;;6.70;99.90;;;;;;5118981;27;20039;-90
2022/05/09 00:22:51;;;;;;;3.38;2.10;;;6.80;99.90;;;;;;5103146;27;20357;-93
2022/05/09 00:25:25;;;;;;;2.95;2.08;;;6.70;99.90;;;;;;5099210;28;20082;-90
2022/05/09 00:27:51;;;;;;;3.85;2.42;;;6.40;99.90;;;;;;5112612;27;20069;-89
2022/05/09 00:30:21;;;;;;;6.35;2.65;;;6.80;99.90;;;;;;5107728;28;20039;-89
2022/05/09 00:32:47;;;;;;;2.20;1.92;;;6.70;99.90;;;;;;5118221;27;20043;-89
2022/05/09 00:35:13;;;;;;;6.30;2.57;;;6.80;99.90;;;;;;5118988;27;20129;-90
2022/05/09 00:37:40;;;;;;;7.22;2.33;;;6.70;99.90;;;;;;5116574;27;20043;-89
2022/05/09 00:40:12;;;;;;;3.67;2.38;;;6.70;99.90;;;;;;5114311;27;20170;-89
2022/05/09 00:42:49;;;;;;;4.03;2.17;;;6.60;99.90;;;;;;5115598;27;20130;-90
2022/05/09 00:45:22;;;;;;;2.70;1.90;;;6.70;99.90;;;;;;5116372;27;20435;-89
2022/05/09 00:47:57;;;;;;;4.57;2.60;;;6.60;99.90;;;;;;5118638;27;20102;-89
2022/05/09 00:50:27;;;;;;;2.58;1.75;;;6.80;99.90;;;;;;5118948;27;20125;-90
2022/05/09 00:53:10;;;;;;;4.32;1.95;;;6.60;99.90;;;;;;5150377;27;20042;-89
2022/05/09 00:55:42;;;;;;;3.97;2.22;;;6.50;99.90;;;;;;5102916;27;20381;-90
2022/05/09 00:58:35;;;;;;;7.05;3.53;;;6.50;99.90;;;;;;5115226;28;20043;-90
2022/05/09 01:01:04;;;;;;;3.67;2.40;;;6.60;99.90;;;;;;5123662;27;20049;-89
2022/05/09 01:03:56;;;;;;;4.45;3.05;;;6.50;99.90;;;;;;5100222;28;20040;-89
2022/05/09 01:06:32;;;;;;;2.88;2.33;;;6.60;99.90;;;;;;5114447;27;20039;-89
2022/05/09 01:09:03;;;;;;;7.72;2.47;;;6.60;99.90;;;;;;5114988;28;20082;-89
2022/05/09 01:11:36;;;;;;;2.83;1.55;;;6.60;99.90;;;;;;5107039;27;20074;-89
2022/05/09 01:14:18;;;;;;;2.22;1.92;;;6.60;99.90;;;;;;5130374;27;20039;-89
2022/05/09 01:16:47;;;;;;;3.63;1.88;;;6.50;99.90;;;;;;5135161;27;20827;-89
2022/05/09 01:19:29;;;;;;;2.95;2.65;;;6.60;99.90;;;;;;5127073;27;20433;-89
2022/05/09 01:21:59;;;;;;;7.57;3.08;;;6.60;99.90;;;;;;5144813;27;20392;-89
2022/05/09 01:24:31;;;;;;;5.43;2.45;;;6.60;99.90;;;;;;5121020;27;20042;-89
2022/05/09 01:26:57;;;;;;;3.47;1.90;;;6.40;99.90;;;;;;5119660;27;20377;-88
2022/05/09 01:29:47;;;;;;;2.78;1.70;;;6.40;99.90;;;;;;5129400;27;20054;-89
2022/05/09 01:32:16;;;;;;;3.00;2.17;;;6.40;99.90;;;;;;5106518;27;20149;-89
2022/05/09 01:34:54;;;;;;;4.63;2.38;;;6.30;99.90;;;;;;5123206;27;20050;-89
2022/05/09 01:37:24;;;;;;;3.40;3.05;;;6.20;99.90;;;;;;5112585;27;20057;-88
2022/05/09 01:39:49;;;;;;;4.60;1.88;;;7.70;99.90;;;;;;5101165;27;20051;-88
2022/05/09 01:42:20;;;;;;;2.13;1.60;;;6.00;99.90;;;;;;5114879;27;20114;-89
2022/05/09 01:44:54;;;;;;;4.15;1.85;;;5.90;99.90;;;;;;5135233;27;20143;-89
2022/05/09 01:50:07;;;;;;;3.20;2.45;;;6.00;99.90;;;;;;5104031;27;20137;-89
2022/05/09 01:52:35;;;;;;;2.22;2.03;;;6.00;99.90;;;;;;5095546;27;20446;-89
2022/05/09 01:55:19;;;;;;;2.63;2.35;;;6.20;99.90;;;;;;5120445;27;20047;-88
2022/05/09 01:57:52;;;;;;;2.63;2.10;;;6.90;99.90;;;;;;5125446;27;20388;-91
2022/05/09 02:00:21;;;;;;;8.43;2.47;;;7.60;99.90;;;;;;5118029;27;20129;-89
2022/05/09 02:02:49;;;;;;;4.10;2.72;;;6.20;99.90;;;;;;5127814;27;20043;-89
2022/05/09 02:05:17;;;;;;;7.35;2.25;;;6.10;99.90;;;;;;5101470;27;20127;-88
2022/05/09 02:07:46;;;;;;;7.85;2.53;;;6.10;99.90;;;;;;5134860;27;20035;-88
2022/05/09 02:10:20;;;;;;;2.17;2.03;;;5.90;99.90;;;;;;5137037;27;20481;-88
2022/05/09 02:12:46;;;;;;;2.78;2.40;;;6.00;99.90;;;;;;5147710;27;20054;-91
2022/05/09 02:15:12;;;;;;;3.33;2.33;;;5.90;99.90;;;;;;5106552;27;20046;-89
2022/05/09 02:17:38;;;;;;;3.22;2.10;;;7.00;99.90;;;;;;5120916;27;20166;-88
2022/05/09 02:20:09;;;;;;;3.58;2.40;;;6.00;99.90;;;;;;5138231;27;20091;-88
2022/05/09 02:22:35;;;;;;;2.78;2.10;;;6.00;99.90;;;;;;5139037;27;20132;-88
2022/05/09 02:25:00;;;;;;;2.83;1.70;;;6.10;99.90;;;;;;5103372;27;20129;-89
2022/05/09 02:27:26;;;;;;;3.50;2.50;;;6.10;99.90;;;;;;5138436;27;20403;-88
2022/05/09 02:29:54;;;;;;;4.77;3.03;;;6.00;99.90;;;;;;5117201;27;20556;-88
2022/05/09 02:32:22;;;;;;;6.63;2.40;;;6.00;99.90;;;;;;5118067;27;20045;-88
2022/05/09 02:34:53;;;;;;;3.47;2.33;;;6.40;99.90;;;;;;5120572;27;20488;-90
2022/05/09 02:37:24;;;;;;;5.00;2.70;;;6.70;99.90;;;;;;5128649;27;20075;-89
2022/05/09 02:39:57;;;;;;;4.10;2.58;;;7.30;99.90;;;;;;5122880;27;20511;-91
2022/05/09 02:42:25;;;;;;;3.00;2.50;;;6.20;99.90;;;;;;5119703;27;20043;-89
2022/05/09 02:44:52;;;;;;;3.45;2.22;;;5.90;99.90;;;;;;5099169;27;20480;-92
2022/05/09 02:47:20;;;;;;;6.32;2.42;;;5.90;99.90;;;;;;5124749;27;20095;-89
2022/05/09 02:49:48;;;;;;;8.05;2.67;;;5.70;99.90;;;;;;5138035;27;20051;-88
2022/05/09 02:52:14;;;;;;;5.88;2.72;;;5.00;99.90;;;;;;5098860;27;20043;-89
2022/05/09 02:54:42;;;;;;;1.83;1.63;;;5.70;99.90;;;;;;5137041;27;20050;-89
2022/05/09 02:57:11;;;;;;;4.40;2.53;;;5.60;99.90;;;;;;5146623;27;20039;-88
2022/05/09 02:59:40;;;;;;;3.20;2.30;;;5.70;99.90;;;;;;5103477;27;20077;-88
2022/05/09 03:02:07;;;;;;;2.70;2.03;;;6.30;99.90;;;;;;5135006;27;20114;-88
2022/05/09 03:04:39;;;;;;;3.13;2.33;;;5.50;99.90;;;;;;5137254;27;20054;-89
2022/05/09 03:07:18;;;;;;;2.38;2.08;;;5.60;99.90;;;;;;5110951;27;20118;-89
2022/05/09 03:09:45;;;;;;;6.97;3.00;;;5.60;99.90;;;;;;5135866;27;20042;-89
2022/05/09 03:12:14;;;;;;;4.13;3.05;;;5.50;99.90;;;;;;5129346;27;20039;-89
2022/05/09 03:14:43;;;;;;;9.18;3.20;;;5.40;99.90;;;;;;5110216;27;20038;-89
2022/05/09 03:17:17;;;;;;;8.05;2.92;;;5.70;99.90;;;;;;5099509;27;20084;-89
2022/05/09 03:19:49;;;;;;;6.30;3.47;;;5.50;99.90;;;;;;5099509;27;20047;-89
2022/05/09 03:22:14;;;;;;;3.22;2.53;;;6.20;99.90;;;;;;5107092;27;20043;-89
2022/05/09 03:24:40;;;;;;;5.60;3.10;;;5.40;99.90;;;;;;5099761;27;20412;-89
2022/05/09 03:27:14;;;;;;;4.23;2.17;;;4.20;99.90;;;;;;5106303;27;20053;-89
2022/05/09 03:29:42;;;;;;;2.67;2.17;;;6.60;99.90;;;;;;5116893;27;20039;-89
2022/05/09 03:32:08;;;;;;;3.45;2.53;;;5.80;99.90;;;;;;5122920;27;20039;-89
2022/05/09 03:34:36;;;;;;;3.95;2.67;;;6.30;99.90;;;;;;5130311;27;20065;-89
2022/05/09 03:37:06;;;;;;;9.18;2.67;;;5.80;99.90;;;;;;5140390;27;20447;-89
2022/05/09 03:39:37;;;;;;;4.18;2.92;;;4.90;99.90;;;;;;5102988;27;20123;-89
2022/05/09 03:42:06;;;;;;;2.70;1.85;;;6.20;99.90;;;;;;5104907;27;20053;-89
2022/05/09 03:44:32;;;;;;;8.18;3.47;;;4.60;99.90;;;;;;5114228;27;20051;-89
2022/05/09 03:47:00;;;;;;;2.40;2.05;;;6.20;99.90;;;;;;5149734;27;20046;-89
2022/05/09 03:49:30;;;;;;;3.03;2.03;;;6.30;99.90;;;;;;5115779;27;20044;-89
2022/05/09 03:51:58;;;;;;;3.92;2.90;;;5.90;99.90;;;;;;5116126;27;20469;-89
2022/05/09 03:54:24;;;;;;;3.38;2.33;;;6.50;99.90;;;;;;5097705;27;20133;-89
2022/05/09 03:56:53;;;;;;;2.38;1.92;;;5.00;99.90;;;;;;5102750;27;20438;-89
2022/05/09 03:59:19;;;;;;;3.53;2.30;;;6.20;99.90;;;;;;5083645;27;20042;-89
2022/05/09 04:01:46;;;;;;;3.40;2.23;;;5.00;99.90;;;;;;5145148;27;20045;-88
2022/05/09 04:04:16;;;;;;;2.00;1.73;;;4.20;99.90;;;;;;5118356;27;20114;-89
2022/05/09 04:06:42;;;;;;;2.78;2.45;;;6.10;99.90;;;;;;5118961;27;20045;-88
2022/05/09 04:09:08;;;;;;;1.60;1.50;;;5.80;99.90;;;;;;5143009;27;20127;-89
2022/05/09 04:11:35;;;;;;;3.20;2.40;;;6.50;99.90;;;;;;5127509;27;20129;-88
2022/05/09 04:14:01;;;;;;;3.40;2.25;;;5.00;99.90;;;;;;5146529;27;20049;-88
2022/05/09 04:19:18;;;;;;;4.70;2.30;;;4.70;99.90;;;;;;5131360;27;20042;-89
2022/05/09 04:21:49;;;;;;;3.33;2.25;;;5.00;99.90;;;;;;5099476;27;20038;-88
2022/05/09 04:24:17;;;;;;;3.95;1.83;;;5.10;99.90;;;;;;5108756;27;20042;-89
2022/05/09 04:26:45;;;;;;;2.80;1.83;;;5.10;99.90;;;;;;5083382;28;20438;-89
2022/05/09 04:29:23;;;;;;;1.80;1.58;;;4.70;99.90;;;;;;5099299;28;20047;-93
2022/05/09 04:31:59;;;;;;;5.65;2.28;;;6.60;99.90;;;;;;5133889;27;20496;-85
2022/05/09 04:34:28;;;;;;;2.35;2.08;;;5.10;99.90;;;;;;5109691;28;20047;-90
2022/05/09 04:36:54;;;;;;;1.98;1.77;;;5.20;99.90;;;;;;5116591;27;20088;-89
2022/05/09 04:39:21;;;;;;;1.55;1.45;;;5.20;99.90;;;;;;5117787;27;20047;-87
2022/05/09 04:41:46;;;;;;;2.17;1.50;;;5.60;99.90;;;;;;5102401;27;20057;-86
2022/05/09 04:44:12;;;;;;;3.08;2.10;;;6.00;99.90;;;;;;5123151;27;20050;-86
2022/05/09 04:46:38;;;;;;;3.40;2.33;;;6.20;99.90;;;;;;5117868;27;20552;-84
2022/05/09 04:49:07;;;;;;;3.17;2.07;;;5.30;99.90;;;;;;5115228;28;20098;-84
2022/05/09 04:51:32;;;;;;;3.25;2.20;;;5.30;99.90;;;;;;5098488;27;20043;-86
2022/05/09 04:53:58;;;;;;;3.13;2.47;;;5.50;99.90;;;;;;5082472;27;20099;-87
2022/05/09 04:56:24;;;;;;;3.35;2.28;;;5.70;99.90;;;;;;5110745;27;20091;-84
2022/05/09 04:58:49;;;;;;;3.10;2.17;;;6.00;99.90;;;;;;5130965;27;20041;-85
2022/05/09 05:01:15;;;;;;;4.20;2.50;;;6.20;99.90;;;;;;5105034;27;20051;-86
2022/05/09 05:03:41;;;;;;;5.03;2.63;;;6.30;99.90;;;;;;5124984;27;20429;-86
2022/05/09 05:06:06;;;;;;;7.27;2.73;;;6.80;99.90;;;;;;5149035;27;20151;-86
2022/05/09 05:08:35;;;;;;;4.23;2.20;;;7.20;99.90;;;;;;5107970;27;20484;-86
2022/05/09 05:11:05;;;;;;;3.22;2.20;;;7.50;99.90;;;;;;5125322;27;20179;-86
2022/05/09 05:13:33;;;;;;;5.15;2.50;;;7.70;99.90;;;;;;5149401;27;20113;-88
2022/05/09 05:15:58;;;;;;;4.15;2.67;;;7.70;99.90;;;;;;5110654;27;20046;-91
2022/05/09 05:18:26;;;;;;;7.13;3.13;;;8.20;99.90;;;;;;5113979;27;20051;-87
2022/05/09 05:20:55;;;;;;;4.90;2.95;;;8.70;99.90;;;;;;5123513;27;20057;-87
2022/05/09 05:23:21;;;;;;;2.92;2.65;;;9.20;99.90;;;;;;5137920;27;20499;-85
2022/05/09 05:25:47;;;;;;;4.63;2.67;;;10.70;99.90;;;;;;5115129;27;20085;-90
2022/05/09 05:28:16;;;;;;;2.80;2.30;;;10.10;99.90;;;;;;5131918;27;20327;-90
2022/05/09 05:30:48;;;;;;;3.90;2.75;;;10.40;99.90;;;;;;5124136;27;20042;-89
2022/05/09 05:33:16;;;;;;;5.72;2.30;;;10.70;99.90;;;;;;5151511;27;20038;-93
2022/05/09 05:35:48;;;;;;;6.07;3.25;;;11.10;99.90;;;;;;5144921;27;20047;-91
2022/05/09 05:38:13;;;;;;;8.90;3.13;;;10.20;99.90;;;;;;5147477;27;20117;-91
2022/05/09 05:40:44;;;;;;;3.57;3.27;;;11.20;99.90;;;;;;5146083;27;20150;-89
2022/05/09 05:43:12;;;;;;;4.97;3.95;;;11.40;99.90;;;;;;5121635;27;20043;-91
2022/05/09 05:45:37;;;;;;;5.93;3.67;;;11.60;99.90;;;;;;5164213;27;20050;-93
2022/05/09 05:48:03;;;;;;;8.43;4.53;;;11.90;99.90;;;;;;5143908;27;20046;-90
2022/05/09 05:50:29;;;;;;;9.30;3.17;;;12.10;99.90;;;;;;5131608;27;20117;-90
2022/05/09 05:52:58;;;;;;;7.00;2.93;;;12.30;99.90;;;;;;5125014;27;20720;-91
2022/05/09 05:55:23;;;;;;;6.05;3.03;;;12.50;99.90;;;;;;5127024;27;20514;-91
2022/05/09 05:57:54;;;;;;;8.97;3.20;;;12.60;99.90;;;;;;5160390;27;20042;-87
2022/05/09 06:00:22;;;;;;;5.75;3.80;;;12.70;99.90;;;;;;5135274;27;20047;-90
2022/05/09 06:02:51;;;;;;;4.90;3.15;;;11.90;99.90;;;;;;5127118;27;20460;-90
2022/05/09 06:05:18;;;;;;;4.72;3.28;;;12.70;99.90;;;;;;5132580;27;20050;-90
2022/05/09 06:07:56;;;;;;;;;;;;;;;;;;;;;
2022/05/09 06:10:37;;;;;;;7.10;4.03;;;12.90;99.90;;;;;;5142799;27;20110;-95
2022/05/09 06:13:19;;;;;;;6.43;3.80;;;13.00;99.90;;;;;;5122902;27;20046;-89
2022/05/09 06:15:45;;;;;;;6.88;3.63;;;13.10;99.90;;;;;;5133164;27;20054;-85
2022/05/09 06:18:14;;;;;;;9.07;2.90;;;13.10;99.90;;;;;;5123595;27;20062;-83
2022/05/09 06:20:43;;;;;;;5.80;2.95;;;13.20;99.90;;;;;;5147595;27;20042;-91
2022/05/09 06:23:16;;;;;;;5.10;3.70;;;13.20;99.90;;;;;;5126976;27;20095;-84
2022/05/09 06:25:44;;;;;;;5.70;4.18;;;13.10;99.90;;;;;;5138692;27;20063;-87
2022/05/09 06:28:12;;;;;;;9.93;3.78;;;13.00;99.90;;;;;;5148844;27;20050;-95
2022/05/09 06:30:38;;;;;;;8.70;3.38;;;13.10;99.90;;;;;;5125260;27;20038;-87
2022/05/09 06:33:07;;;;;;;8.02;2.75;;;13.10;99.90;;;;;;5137036;27;20039;-90
2022/05/09 06:35:37;;;;;;;4.90;2.80;;;13.30;99.90;;;;;;5132689;27;20046;-89
2022/05/09 06:38:05;;;;;;;9.48;3.03;;;13.40;99.90;;;;;;5130933;27;20050;-88
2022/05/09 06:40:35;;;;;;;4.15;2.92;;;13.60;99.90;;;;;;5144221;27;20540;-90
2022/05/09 06:43:13;;;;;;;;;;;;;;;;;;;;;
2022/05/09 06:45:40;;;;;;;6.60;3.33;;;14.00;99.90;;;;;;5146121;27;20057;-89
2022/05/09 06:48:06;;;;;;;5.63;3.25;;;14.30;99.90;;;;;;5117306;27;20039;-87
2022/05/09 06:50:34;;;;;;;12.60;4.47;;;14.40;99.90;;;;;;5130686;27;20042;-92
2022/05/09 06:53:03;;;;;;;6.90;3.03;;;14.70;99.90;;;;;;5125214;27;20034;-87
2022/05/09 06:55:39;;;;;;;6.45;2.60;;;14.90;99.90;;;;;;5152052;27;20039;-89
2022/05/09 06:58:09;;;;;;;5.45;2.63;;;15.10;99.90;;;;;;5123349;27;20046;-91
2022/05/09 07:00:37;;;;;;;10.35;3.85;;;15.20;99.90;;;;;;5110737;27;20046;-93
2022/05/09 07:03:04;;;;;;;3.83;2.80;;;15.40;99.90;;;;;;5126237;27;20096;-89
2022/05/09 07:05:33;;;;;;;7.10;2.78;;;15.60;99.90;;;;;;5116838;27;20039;-91
2022/05/09 07:07:59;;;;;;;4.75;2.40;;;15.90;99.90;;;;;;5087199;27;20495;-90
2022/05/09 07:10:28;;;;;;;4.90;2.20;;;16.00;99.90;;;;;;5101077;27;20043;-92
2022/05/09 07:12:59;;;;;;;5.13;2.33;;;16.10;99.90;;;;;;5108097;27;20031;-90
2022/05/09 07:15:30;;;;;;;4.78;3.20;;;16.30;99.90;;;;;;5148486;27;20496;-93
2022/05/09 07:17:58;;;;;;;3.38;2.50;;;16.40;99.90;;;;;;5160425;27;20047;-89
2022/05/09 07:20:26;;;;;;;7.13;3.45;;;16.50;99.90;;;;;;5149146;27;20069;-91
2022/05/09 07:22:56;;;;;;;4.03;2.47;;;16.50;99.90;;;;;;5133361;27;20045;-91
2022/05/09 07:25:24;;;;;;;4.97;3.42;;;16.70;99.90;;;;;;5146202;27;20077;-94
2022/05/09 07:27:50;;;;;;;4.32;2.38;;;16.80;99.90;;;;;;5144431;27;20038;-93
2022/05/09 07:30:19;;;;;;;4.03;2.55;;;16.00;99.90;;;;;;5122707;27;20080;-92
2022/05/09 07:32:46;;;;;;;4.72;2.10;;;17.10;99.90;;;;;;5139110;27;20070;-91
2022/05/09 07:35:23;;;;;;;4.28;3.10;;;17.30;99.90;;;;;;5127259;27;20051;-91
2022/05/09 07:37:52;;;;;;;10.10;3.65;;;17.50;99.90;;;;;;5156083;27;20046;-89
2022/05/09 07:40:28;;;;;;;4.35;2.38;;;17.70;99.90;;;;;;5135976;27;20075;-87
2022/05/09 07:43:12;;;;;;;3.33;1.95;;;17.80;99.90;;;;;;5120089;27;20049;-88
2022/05/09 07:45:38;;;;;;;8.23;2.67;;;17.80;99.90;;;;;;5141117;27;20038;-89
2022/05/09 07:48:07;;;;;;;8.35;2.78;;;18.00;99.90;;;;;;5131886;27;20480;-89
2022/05/09 07:50:33;;;;;;;9.05;2.65;;;18.40;99.90;;;;;;5110459;27;20047;-92
2022/05/09 07:53:07;;;;;;;8.93;2.80;;;18.40;98.90;;;;;;5135161;27;20043;-87
2022/05/09 07:55:35;;;;;;;7.70;2.97;;;18.50;97.30;;;;;;5118718;27;20070;-93
2022/05/09 07:58:09;;;;;;;5.88;2.63;;;18.60;97.30;;;;;;5124230;27;20476;-92
2022/05/09 08:00:48;;;;;;;;;;;;;;;;;;;;;
2022/05/09 08:03:33;;;;;;;;;;;;;;;;;;;;;
2022/05/09 08:06:14;;;;;;;6.45;2.90;;;19.30;95.50;;;;;;5142035;27;20053;-95
2022/05/09 08:08:42;;;;;;;4.25;1.92;;;19.50;94.40;;;;;;5117530;27;20047;-95
2022/05/09 08:11:11;;;;;;;1.52;1.42;;;19.40;94.40;;;;;;5119026;27;20073;-96
2022/05/09 08:13:39;;;;;;;5.13;1.80;;;19.60;94.00;;;;;;5098982;27;20035;-94
2022/05/09 08:16:11;;;;;;;2.67;2.10;;;19.80;92.00;;;;;;5099315;27;20050;-95
2022/05/09 08:18:38;;;;;;;4.20;2.50;;;20.00;92.00;;;;;;5109511;27;20504;-95
2022/05/09 08:21:09;;;;;;;2.13;1.80;;;20.20;91.50;;;;;;5099210;27;20134;-94
2022/05/09 08:23:35;;;;;;;1.92;1.75;;;20.40;90.40;;;;;;5099513;28;20074;-95
2022/05/09 08:26:03;;;;;;;;;;;20.50;90.20;;;;;;5095908;27;20043;-96
2022/05/09 08:28:30;;;;;;;3.85;1.77;;;20.30;84.50;;;;;;5104953;28;19919;-95
2022/05/09 08:31:10;;;;;;;4.60;1.70;;;20.30;90.10;;;;;;5083722;28;20488;-96
2022/05/09 08:33:46;;;;;;;4.07;2.92;;;20.60;87.40;;;;;;5099494;28;20080;-96
2022/05/09 08:39:33;;;;;;;;;;;;;;;;;;;;;
2022/05/09 08:42:28;;;;;;;2.90;1.73;;;21.20;84.20;;;;;;5128383;27;20066;-96
2022/05/09 08:45:14;;;;;;;5.43;2.17;;;21.40;84.80;;;;;;5140735;27;20116;-96
2022/05/09 08:48:05;;;;;;;;;;;;;;;;;;;;;
2022/05/09 08:50:44;;;;;;;4.50;1.80;;;21.60;79.80;;;;;;5130950;27;20045;-92
2022/05/09 08:53:19;;;;;;;4.35;1.90;;;21.80;81.20;;;;;;5162169;27;20049;-85
2022/05/09 08:55:46;;;;;;;6.50;2.15;;;21.80;78.60;;;;;;5139329;27;20068;-84
2022/05/09 08:58:40;;;;;;;2.97;2.25;;;21.80;78.70;;;;;;5163291;27;20133;-89
2022/05/09 09:01:27;;;;;;;6.07;2.10;;;21.90;74.70;;;;;;5140204;27;20051;-83
2022/05/09 09:04:03;;;;;;;4.07;2.40;;;22.00;71.60;;;;;;5161859;27;20063;-85
2022/05/09 09:06:36;;;;;;;4.20;2.20;;;22.00;73.00;;;;;;5133511;27;20500;-86
2022/05/09 09:09:28;;;;;;;4.95;2.28;;;22.20;74.70;;;;;;5130592;27;20455;-87
2022/05/09 09:12:07;;;;;;;4.68;2.13;;;22.30;71.50;;;;;;5105220;27;20476;-87
2022/05/09 09:15:07;;;;;;;3.60;1.67;;;22.40;71.40;;;;;;5138037;27;20058;-87
2022/05/09 09:18:11;;;;;;;4.05;2.42;;;22.50;70.40;;;;;;5121993;27;20047;-87
2022/05/09 09:20:58;;;;;;;3.25;1.95;;;22.60;69.90;;;;;;5077085;28;20044;-86
2022/05/09 09:23:55;;;;;;;3.47;2.00;;;22.80;67.10;;;;;;5136822;27;20050;-88
2022/05/09 09:26:40;;;;;;;1.80;1.63;;;22.90;64.80;;;;;;5129257;27;20038;-87
2022/05/09 09:29:13;;;;;;;3.10;1.70;;;23.00;61.10;;;;;;5133354;27;20047;-87
2022/05/09 09:31:48;;;;;;;5.88;1.98;;;22.90;60.70;;;;;;5118480;27;20043;-87
2022/05/09 09:34:43;;;;;;;4.88;2.00;;;22.90;61.50;;;;;;5125409;27;20100;-88
2022/05/09 09:37:22;;;;;;;3.85;1.63;;;22.90;60.40;;;;;;5139456;27;20134;-81
2022/05/09 09:39:48;;;;;;;5.05;2.13;;;22.80;60.30;;;;;;5127286;27;20456;-90
2022/05/09 09:42:13;;;;;;;;;;;22.90;62.80;;;;;;5138879;27;20126;-83
2022/05/09 09:44:44;;;;;;;6.07;1.83;;;23.00;59.80;;;;;;5124392;27;19967;-86
2022/05/09 09:47:21;;;;;;;1.83;1.63;;;22.90;62.60;;;;;;5100330;27;20342;-87
2022/05/09 09:49:49;;;;;;;3.00;1.70;;;23.00;60.90;;;;;;5101864;27;20099;-87
2022/05/09 09:52:31;;;;;;;3.20;1.75;;;22.60;61.10;;;;;;5133158;27;20058;-87
2022/05/09 09:55:18;;;;;;;4.88;2.08;;;23.00;59.00;;;;;;5133013;27;20053;-88
2022/05/09 09:57:49;;;;;;;4.97;1.80;;;23.20;60.80;;;;;;5138411;27;20046;-88
2022/05/09 10:00:24;;;;;;;4.53;2.42;;;23.30;60.30;;;;;;5093647;27;20072;-89
2022/05/09 10:02:52;;;;;;;2.35;1.60;;;23.40;59.70;;;;;;5150287;27;20073;-91
2022/05/09 10:05:45;;;;;;;1.90;1.70;;;23.50;59.20;;;;;;5122155;27;20057;-89
2022/05/09 10:08:29;;;;;;;3.40;1.75;;;23.40;58.30;;;;;;5138484;27;20042;-86
2022/05/09 10:11:03;;;;;;;3.70;1.33;;;23.50;56.10;;;;;;5138646;27;20138;-90
2022/05/09 10:13:42;;;;;;;2.97;1.33;;;23.40;57.10;;;;;;5130956;27;20062;-87
2022/05/09 10:16:12;;;;;;;1.60;1.45;;;23.30;56.50;;;;;;5146353;27;20043;-88
2022/05/09 10:18:43;;;;;;;3.13;2.08;;;23.30;57.70;;;;;;5126356;27;20050;-86
2022/05/09 10:24:47;;;;;;;3.38;1.60;;;23.20;57.30;;;;;;5139553;27;20492;-91
2022/05/09 10:27:08;;;;;;;2.10;1.23;;;23.40;57.50;;;;;;5150603;27;20050;-91
2022/05/09 10:29:40;;;;;;;3.22;1.45;;;23.20;57.80;;;;;;5139200;27;20039;-91
2022/05/09 10:32:14;;;;;;;4.18;1.98;;;23.40;57.70;;;;;;5121887;27;20170;-90
2022/05/09 10:34:52;;;;;;;3.38;1.75;;;23.50;56.90;;;;;;5137997;27;20035;-89
2022/05/09 10:41:15;;;;;;;6.20;1.50;;;23.50;55.70;;;;;;5140031;27;20051;-90
2022/05/09 10:44:39;;;;;;;3.88;1.63;;;24.00;55.60;;;;;;5123963;27;20059;-88
2022/05/09 10:47:17;;;;;;;4.57;1.95;;;24.00;55.00;;;;;;5089047;27;20047;-87
2022/05/09 10:49:57;;;;;;;2.15;1.67;;;24.30;55.60;;;;;;5126477;27;20047;-89
2022/05/09 10:56:02;;;;;;;5.70;1.83;;;24.30;53.80;;;;;;5155145;27;20037;-92
2022/05/09 10:59:00;;;;;;;4.50;1.90;;;24.70;54.90;;;;;;5114100;27;20499;-92
2022/05/09 11:01:45;;;;;;;3.03;1.58;;;24.60;53.50;;;;;;5127830;27;20046;-90
2022/05/09 11:04:14;;;;;;;12.75;2.67;;;24.50;52.90;;;;;;5141788;27;20172;-88
2022/05/09 11:06:51;;;;;;;7.47;1.52;;;24.40;54.30;;;;;;5127514;27;20129;-89
2022/05/09 11:09:41;;;;;;;1.92;1.23;;;24.50;53.80;;;;;;5140147;27;20043;-86
2022/05/09 11:12:35;;;;;;;3.10;1.40;;;24.50;54.00;;;;;;5149068;27;20069;-93
2022/05/09 11:15:16;;;;;;;2.28;1.52;;;24.50;53.60;;;;;;5137807;27;20073;-92
2022/05/09 11:18:01;;;;;;;5.78;2.22;;;24.60;52.80;;;;;;5130106;27;20095;-91
2022/05/09 11:20:49;;;;;;;5.88;1.42;;;24.60;52.80;;;;;;5126212;27;20110;-92
2022/05/09 11:23:46;;;;;;;2.88;1.38;;;24.50;51.90;;;;;;5148083;27;20038;-93
2022/05/09 11:26:13;;;;;;;2.65;0.90;;;24.50;52.50;;;;;;5151702;27;20113;-91
2022/05/09 11:28:50;;;;;;;2.80;1.40;;;24.60;53.40;;;;;;5140550;27;20182;-94
2022/05/09 11:31:16;;;;;;;3.85;1.95;;;24.70;54.10;;;;;;5119774;27;20135;-93
2022/05/09 11:33:58;;;;;;;2.40;1.52;;;24.90;53.40;;;;;;5128987;27;20087;-96
2022/05/09 11:36:35;;;;;;;1.38;1.27;;;24.90;53.00;;;;;;5131919;27;20047;-95
2022/05/09 11:39:11;;;;;;;2.13;1.23;;;24.90;51.80;;;;;;5122846;27;20058;-95
2022/05/09 11:41:58;;;;;;;3.13;1.95;;;24.80;52.90;;;;;;5136801;27;20460;-95
2022/05/09 11:44:42;;;;;;;5.05;1.90;;;24.80;52.60;;;;;;5126413;27;20054;-93
2022/05/09 11:47:16;;;;;;;5.60;1.80;;;24.80;52.30;;;;;;5144368;27;20034;-95
2022/05/09 11:50:05;;;;;;;4.28;1.65;;;24.70;52.80;;;;;;5127111;27;20043;-95
2022/05/09 11:52:39;;;;;;;1.98;1.20;;;24.80;52.50;;;;;;5123276;27;20117;-95
2022/05/09 11:55:26;;;;;;;3.42;1.35;;;24.80;53.10;;;;;;5122718;27;20043;-96
2022/05/09 11:57:58;;;;;;;3.05;1.30;;;24.90;53.00;;;;;;5136142;27;20042;-96
2022/05/09 12:00:33;;;;;;;3.88;1.55;;;24.80;53.30;;;;;;5140479;27;20042;-93
2022/05/09 12:03:05;;;;;;;4.20;1.63;;;24.90;53.10;;;;;;5156944;27;20050;-96
2022/05/09 12:05:34;;;;;;;3.47;1.35;;;24.90;52.90;;;;;;5156910;27;20038;-96
2022/05/09 12:08:02;;;;;;;4.22;2.00;;;25.00;52.80;;;;;;5140899;27;20045;-95
2022/05/09 12:10:35;;;;;;;5.68;1.65;;;24.90;52.70;;;;;;5136685;27;20091;-95
2022/05/09 12:13:11;;;;;;;6.07;2.25;;;24.90;53.00;;;;;;5128150;27;20488;-94
2022/05/09 12:15:43;;;;;;;1.27;1.10;;;24.90;53.20;;;;;;5119490;27;20141;-89
2022/05/09 12:18:29;;;;;;;2.05;1.45;;;25.20;53.20;;;;;;5139675;27;20139;-94
2022/05/09 12:20:55;;;;;;;1.25;1.15;;;25.30;52.90;;;;;;5118898;28;20050;-94
2022/05/09 12:23:39;;;;;;;6.10;1.77;;;25.40;53.20;;;;;;5115617;27;20047;-94
2022/05/09 12:26:07;;;;;;;1.48;1.23;;;25.30;52.20;;;;;;5115654;27;20043;-91
2022/05/09 12:28:45;;;;;;;1.45;1.35;;;25.40;52.10;;;;;;5157290;27;20070;-91
2022/05/09 12:31:29;;;;;;;1.90;1.30;;;25.40;52.00;;;;;;5147033;27;20046;-92
2022/05/09 12:33:58;;;;;;;3.88;1.63;;;25.50;52.10;;;;;;5119778;27;20134;-92
2022/05/09 12:36:37;;;;;;;3.53;1.45;;;25.50;52.50;;;;;;5120201;27;20424;-92
2022/05/09 12:39:31;;;;;;;2.22;1.88;;;25.40;51.20;;;;;;5137215;27;20046;-93
2022/05/09 12:42:02;;;;;;;5.95;2.58;;;25.10;51.50;;;;;;5119713;27;20476;-92
2022/05/09 12:44:45;;;;;;;2.65;2.13;;;25.20;52.20;;;;;;5124330;27;20038;-92
2022/05/09 12:47:46;;;;;;;1.73;1.60;;;25.20;52.00;;;;;;5143709;27;20078;-90
2022/05/09 12:50:21;;;;;;;3.92;1.40;;;25.20;53.00;;;;;;5121808;27;20086;-88
2022/05/09 12:53:07;;;;;;;8.27;2.15;;;25.40;52.40;;;;;;5136020;27;20491;-91
2022/05/09 12:55:57;;;;;;;3.22;1.75;;;25.60;53.10;;;;;;5119279;27;20955;-89
2022/05/09 12:58:32;;;;;;;;;;;25.70;51.50;;;;;;5117134;28;20043;-93
2022/05/09 13:01:19;;;;;;;3.30;1.50;;;25.60;51.80;;;;;;5132154;27;20420;-91
2022/05/09 13:03:56;;;;;;;2.53;2.13;;;25.60;51.60;;;;;;5139892;27;20085;-92
2022/05/09 13:06:25;;;;;;;5.03;2.05;;;25.60;51.40;;;;;;5155836;27;20376;-92
2022/05/09 13:08:51;;;;;;;4.18;1.52;;;25.60;51.70;;;;;;5099411;28;20050;-92
2022/05/09 13:11:30;;;;;;;6.25;1.67;;;25.70;51.60;;;;;;5133856;27;20057;-93
2022/05/09 13:14:08;;;;;;;3.50;1.60;;;25.80;51.30;;;;;;5135267;27;20049;-92
2022/05/09 13:16:50;;;;;;;1.77;1.35;;;25.70;51.80;;;;;;5139709;27;20061;-91
2022/05/09 13:19:20;;;;;;;2.55;1.77;;;25.10;50.50;;;;;;5132584;27;20055;-87
2022/05/09 13:21:48;;;;;;;1.63;1.52;;;25.80;51.10;;;;;;5151485;27;20051;-94
2022/05/09 13:24:27;;;;;;;4.82;1.55;;;25.80;51.00;;;;;;5116221;27;20405;-92
2022/05/09 13:26:58;;;;;;;4.38;2.28;;;25.70;50.50;;;;;;5101069;27;20384;-91
2022/05/09 13:29:38;;;;;;;3.35;2.78;;;24.80;49.90;;;;;;5138211;27;20047;-90
2022/05/09 13:32:05;;;;;;;2.90;1.45;;;25.50;50.30;;;;;;5140265;27;20043;-90
2022/05/09 13:34:44;;;;;;;1.95;1.85;;;25.60;50.70;;;;;;5104558;27;20056;-91
2022/05/09 13:37:12;;;;;;;3.67;1.75;;;25.00;49.90;;;;;;5136158;27;20111;-91
2022/05/09 13:39:41;;;;;;;1.95;1.75;;;25.00;49.90;;;;;;5121273;27;20492;-89
2022/05/09 13:42:20;;;;;;;4.47;2.33;;;25.90;50.30;;;;;;5136337;27;20051;-90
2022/05/09 13:44:47;;;;;;;1.52;1.42;;;26.00;50.90;;;;;;5105774;27;20130;-90
2022/05/09 13:47:21;;;;;;;1.58;1.48;;;25.90;50.20;;;;;;5118925;27;20559;-90
2022/05/09 13:49:58;;;;;;;2.80;1.55;;;26.00;50.00;;;;;;5135301;27;20043;-90